sensor_id;sensor_type;location;lat;lon;timestamp;temperature;humidity
29813;DHT22;16707;48.106;11.548;2023-07-29T00:01:11;15.40;99.90
29813;DHT22;16707;48.106;11.548;2023-07-29T00:03:38;15.40;99.90
29813;DHT22;16707;48.106;11.548;2023-07-29T00:06:06;15.40;99.90
29813;DHT22;16707;48.106;11.548;2023-07-29T00:08:33;15.40;99.90
29813;DHT22;16707;48.106;11.548;2023-07-29T00:11:00;15.30;99.90
29813;DHT22;16707;48.106;11.548;2023-07-29T00:13:28;15.30;99.90
29813;DHT22;16707;48.106;11.548;2023-07-29T00:15:55;15.30;99.90
29813;DHT22;16707;48.106;11.548;2023-07-29T00:18:22;15.30;99.90
29813;DHT22;16707;48.106;11.548;2023-07-29T00:20:49;15.30;99.90
29813;DHT22;16707;48.106;11.548;2023-07-29T00:23:17;15.20;99.90
29813;DHT22;16707;48.106;11.548;2023-07-29T00:25:45;15.20;99.90
29813;DHT22;16707;48.106;11.548;2023-07-29T00:28:12;15.20;99.90
29813;DHT22;16707;48.106;11.548;2023-07-29T00:30:41;15.20;99.90
29813;DHT22;16707;48.106;11.548;2023-07-29T00:33:08;15.20;99.90
29813;DHT22;16707;48.106;11.548;2023-07-29T00:35:35;15.20;99.90
29813;DHT22;16707;48.106;11.548;2023-07-29T00:38:02;15.20;99.90
29813;DHT22;16707;48.106;11.548;2023-07-29T00:40:29;15.30;99.90
29813;DHT22;16707;48.106;11.548;2023-07-29T00:42:57;15.30;99.90
29813;DHT22;16707;48.106;11.548;2023-07-29T00:45:25;15.30;99.90
29813;DHT22;16707;48.106;11.548;2023-07-29T00:47:54;15.40;99.90
29813;DHT22;16707;48.106;11.548;2023-07-29T00:50:22;15.50;99.90
29813;DHT22;16707;48.106;11.548;2023-07-29T00:52:49;15.60;99.90
29813;DHT22;16707;48.106;11.548;2023-07-29T00:55:17;15.60;99.90
29813;DHT22;16707;48.106;11.548;2023-07-29T00:57:44;15.70;99.90
29813;DHT22;16707;48.106;11.548;2023-07-29T01:00:14;15.70;99.90
29813;DHT22;16707;48.106;11.548;2023-07-29T01:02:42;15.70;99.90
29813;DHT22;16707;48.106;11.548;2023-07-29T01:05:13;15.70;99.90
29813;DHT22;16707;48.106;11.548;2023-07-29T01:07:55;15.70;99.90
29813;DHT22;16707;48.106;11.548;2023-07-29T01:10:31;15.60;99.90
29813;DHT22;16707;48.106;11.548;2023-07-29T01:13:08;15.50;99.90
29813;DHT22;16707;48.106;11.548;2023-07-29T01:15:44;15.40;99.90
29813;DHT22;16707;48.106;11.548;2023-07-29T01:18:18;15.40;99.90
29813;DHT22;16707;48.106;11.548;2023-07-29T01:20:53;15.40;99.90
29813;DHT22;16707;48.106;11.548;2023-07-29T01:23:25;15.40;99.90
29813;DHT22;16707;48.106;11.548;2023-07-29T01:25:52;15.30;99.90
29813;DHT22;16707;48.106;11.548;2023-07-29T01:28:19;15.20;99.90
29813;DHT22;16707;48.106;11.548;2023-07-29T01:30:49;15.10;99.90
29813;DHT22;16707;48.106;11.548;2023-07-29T01:33:23;15.10;99.90
29813;DHT22;16707;48.106;11.548;2023-07-29T01:35:57;15.00;99.90
29813;DHT22;16707;48.106;11.548;2023-07-29T01:38:30;15.00;99.90
29813;DHT22;16707;48.106;11.548;2023-07-29T01:41:01;15.00;99.90
29813;DHT22;16707;48.106;11.548;2023-07-29T01:43:29;15.00;99.90
29813;DHT22;16707;48.106;11.548;2023-07-29T01:45:56;14.90;99.90
29813;DHT22;16707;48.106;11.548;2023-07-29T01:48:24;14.90;99.90
29813;DHT22;16707;48.106;11.548;2023-07-29T01:50:53;14.80;99.90
29813;DHT22;16707;48.106;11.548;2023-07-29T01:53:20;14.80;99.90
29813;DHT22;16707;48.106;11.548;2023-07-29T01:55:48;14.90;99.90
29813;DHT22;16707;48.106;11.548;2023-07-29T01:58:15;14.90;99.90
29813;DHT22;16707;48.106;11.548;2023-07-29T02:00:42;15.00;99.90
29813;DHT22;16707;48.106;11.548;2023-07-29T02:03:09;15.10;99.90
29813;DHT22;16707;48.106;11.548;2023-07-29T02:05:36;15.10;99.90
29813;DHT22;16707;48.106;11.548;2023-07-29T02:08:03;15.10;99.90
29813;DHT22;16707;48.106;11.548;2023-07-29T02:10:30;15.10;99.90
29813;DHT22;16707;48.106;11.548;2023-07-29T02:12:58;15.00;99.90
29813;DHT22;16707;48.106;11.548;2023-07-29T02:15:25;15.00;99.90
29813;DHT22;16707;48.106;11.548;2023-07-29T02:17:53;14.90;99.90
29813;DHT22;16707;48.106;11.548;2023-07-29T02:20:20;14.90;99.90
29813;DHT22;16707;48.106;11.548;2023-07-29T02:22:47;14.90;99.90
29813;DHT22;16707;48.106;11.548;2023-07-29T02:25:14;14.90;99.90
29813;DHT22;16707;48.106;11.548;2023-07-29T02:27:41;14.90;99.90
29813;DHT22;16707;48.106;11.548;2023-07-29T02:30:10;14.80;99.90
29813;DHT22;16707;48.106;11.548;2023-07-29T02:32:38;14.80;99.90
29813;DHT22;16707;48.106;11.548;2023-07-29T02:35:05;14.70;99.90
29813;DHT22;16707;48.106;11.548;2023-07-29T02:37:33;14.70;99.90
29813;DHT22;16707;48.106;11.548;2023-07-29T02:39:59;14.70;99.90
29813;DHT22;16707;48.106;11.548;2023-07-29T02:42:27;14.70;99.90
29813;DHT22;16707;48.106;11.548;2023-07-29T02:44:54;14.70;99.90
29813;DHT22;16707;48.106;11.548;2023-07-29T02:47:22;14.70;99.90
29813;DHT22;16707;48.106;11.548;2023-07-29T02:49:49;14.70;99.90
29813;DHT22;16707;48.106;11.548;2023-07-29T02:52:16;14.70;99.90
29813;DHT22;16707;48.106;11.548;2023-07-29T02:54:43;14.70;99.90
29813;DHT22;16707;48.106;11.548;2023-07-29T02:57:10;14.70;99.90
29813;DHT22;16707;48.106;11.548;2023-07-29T02:59:37;14.70;99.90
29813;DHT22;16707;48.106;11.548;2023-07-29T03:02:04;14.70;99.90
29813;DHT22;16707;48.106;11.548;2023-07-29T03:04:32;14.70;99.90
29813;DHT22;16707;48.106;11.548;2023-07-29T03:06:59;14.70;99.90
29813;DHT22;16707;48.106;11.548;2023-07-29T03:09:26;14.60;99.90
29813;DHT22;16707;48.106;11.548;2023-07-29T03:11:54;14.70;99.90
29813;DHT22;16707;48.106;11.548;2023-07-29T03:14:21;14.70;99.90
29813;DHT22;16707;48.106;11.548;2023-07-29T03:16:48;14.80;99.90
29813;DHT22;16707;48.106;11.548;2023-07-29T03:19:15;14.90;99.90
29813;DHT22;16707;48.106;11.548;2023-07-29T03:21:43;14.80;99.90
29813;DHT22;16707;48.106;11.548;2023-07-29T03:24:11;14.80;99.90
29813;DHT22;16707;48.106;11.548;2023-07-29T03:26:38;14.80;99.90
29813;DHT22;16707;48.106;11.548;2023-07-29T03:29:05;14.90;99.90
29813;DHT22;16707;48.106;11.548;2023-07-29T03:31:32;15.10;99.90
29813;DHT22;16707;48.106;11.548;2023-07-29T03:33:59;15.00;99.90
29813;DHT22;16707;48.106;11.548;2023-07-29T03:36:26;15.10;99.90
29813;DHT22;16707;48.106;11.548;2023-07-29T03:38:54;15.10;99.90
29813;DHT22;16707;48.106;11.548;2023-07-29T03:41:22;15.10;99.90
29813;DHT22;16707;48.106;11.548;2023-07-29T03:43:49;15.10;99.90
29813;DHT22;16707;48.106;11.548;2023-07-29T03:46:16;15.20;99.90
29813;DHT22;16707;48.106;11.548;2023-07-29T03:48:45;15.30;99.90
29813;DHT22;16707;48.106;11.548;2023-07-29T03:51:12;15.40;99.90
29813;DHT22;16707;48.106;11.548;2023-07-29T03:53:39;15.50;99.90
29813;DHT22;16707;48.106;11.548;2023-07-29T03:56:07;15.50;99.90
29813;DHT22;16707;48.106;11.548;2023-07-29T03:58:34;15.60;99.90
29813;DHT22;16707;48.106;11.548;2023-07-29T04:01:01;15.60;99.90
29813;DHT22;16707;48.106;11.548;2023-07-29T04:03:28;15.70;99.90
29813;DHT22;16707;48.106;11.548;2023-07-29T04:05:55;15.80;99.90
29813;DHT22;16707;48.106;11.548;2023-07-29T04:08:22;15.80;99.90
29813;DHT22;16707;48.106;11.548;2023-07-29T04:10:49;15.90;99.90
29813;DHT22;16707;48.106;11.548;2023-07-29T04:13:18;16.00;99.90
29813;DHT22;16707;48.106;11.548;2023-07-29T04:15:45;16.10;99.90
29813;DHT22;16707;48.106;11.548;2023-07-29T04:18:12;16.20;99.90
29813;DHT22;16707;48.106;11.548;2023-07-29T04:20:39;16.20;99.90
29813;DHT22;16707;48.106;11.548;2023-07-29T04:23:06;16.20;99.90
29813;DHT22;16707;48.106;11.548;2023-07-29T04:25:33;16.20;99.90
29813;DHT22;16707;48.106;11.548;2023-07-29T04:28:00;16.20;99.90
29813;DHT22;16707;48.106;11.548;2023-07-29T04:30:30;16.10;99.90
29813;DHT22;16707;48.106;11.548;2023-07-29T04:32:57;16.10;99.90
29813;DHT22;16707;48.106;11.548;2023-07-29T04:35:24;16.20;99.90
29813;DHT22;16707;48.106;11.548;2023-07-29T04:37:51;16.30;99.90
29813;DHT22;16707;48.106;11.548;2023-07-29T04:40:18;16.40;99.90
29813;DHT22;16707;48.106;11.548;2023-07-29T04:42:45;16.40;99.90
29813;DHT22;16707;48.106;11.548;2023-07-29T04:45:12;16.50;99.90
29813;DHT22;16707;48.106;11.548;2023-07-29T04:47:40;16.70;99.90
29813;DHT22;16707;48.106;11.548;2023-07-29T04:50:08;18.00;99.90
29813;DHT22;16707;48.106;11.548;2023-07-29T04:52:36;19.60;99.90
29813;DHT22;16707;48.106;11.548;2023-07-29T04:55:04;21.30;99.90
29813;DHT22;16707;48.106;11.548;2023-07-29T04:57:31;24.40;99.90
29813;DHT22;16707;48.106;11.548;2023-07-29T04:59:58;26.20;99.70
29813;DHT22;16707;48.106;11.548;2023-07-29T05:02:25;28.30;92.20
29813;DHT22;16707;48.106;11.548;2023-07-29T05:04:53;29.50;82.90
29813;DHT22;16707;48.106;11.548;2023-07-29T05:07:20;28.70;80.00
29813;DHT22;16707;48.106;11.548;2023-07-29T05:09:47;29.90;76.90
29813;DHT22;16707;48.106;11.548;2023-07-29T05:12:15;27.60;80.10
29813;DHT22;16707;48.106;11.548;2023-07-29T05:14:42;26.80;87.10
29813;DHT22;16707;48.106;11.548;2023-07-29T05:17:09;25.20;91.20
29813;DHT22;16707;48.106;11.548;2023-07-29T05:19:36;25.10;95.00
29813;DHT22;16707;48.106;11.548;2023-07-29T05:22:04;28.50;90.30
29813;DHT22;16707;48.106;11.548;2023-07-29T05:24:31;27.00;85.30
29813;DHT22;16707;48.106;11.548;2023-07-29T05:26:58;26.50;90.20
29813;DHT22;16707;48.106;11.548;2023-07-29T05:29:25;27.00;87.70
29813;DHT22;16707;48.106;11.548;2023-07-29T05:31:52;26.60;89.60
29813;DHT22;16707;48.106;11.548;2023-07-29T05:34:19;27.50;90.10
29813;DHT22;16707;48.106;11.548;2023-07-29T05:36:46;28.90;80.30
29813;DHT22;16707;48.106;11.548;2023-07-29T05:39:15;26.30;87.70
29813;DHT22;16707;48.106;11.548;2023-07-29T05:41:41;24.80;92.70
29813;DHT22;16707;48.106;11.548;2023-07-29T05:44:08;23.70;96.10
29813;DHT22;16707;48.106;11.548;2023-07-29T05:46:35;24.00;98.40
29813;DHT22;16707;48.106;11.548;2023-07-29T05:49:02;23.50;97.60
29813;DHT22;16707;48.106;11.548;2023-07-29T05:51:29;25.00;96.70
29813;DHT22;16707;48.106;11.548;2023-07-29T05:53:56;25.20;95.10
29813;DHT22;16707;48.106;11.548;2023-07-29T05:56:24;24.60;96.10
29813;DHT22;16707;48.106;11.548;2023-07-29T05:58:52;23.80;97.50
29813;DHT22;16707;48.106;11.548;2023-07-29T06:01:19;22.60;99.90
29813;DHT22;16707;48.106;11.548;2023-07-29T06:03:47;21.10;99.90
29813;DHT22;16707;48.106;11.548;2023-07-29T06:06:13;20.20;99.90
29813;DHT22;16707;48.106;11.548;2023-07-29T06:08:40;19.90;99.90
29813;DHT22;16707;48.106;11.548;2023-07-29T06:11:07;19.80;99.90
29813;DHT22;16707;48.106;11.548;2023-07-29T06:13:36;19.80;99.90
29813;DHT22;16707;48.106;11.548;2023-07-29T06:16:04;19.80;99.90
29813;DHT22;16707;48.106;11.548;2023-07-29T06:18:30;19.50;99.90
29813;DHT22;16707;48.106;11.548;2023-07-29T06:20:57;19.40;99.90
29813;DHT22;16707;48.106;11.548;2023-07-29T06:23:24;19.30;99.90
29813;DHT22;16707;48.106;11.548;2023-07-29T06:25:51;19.30;99.90
29813;DHT22;16707;48.106;11.548;2023-07-29T06:28:18;19.20;99.90
29813;DHT22;16707;48.106;11.548;2023-07-29T06:30:47;19.40;99.90
29813;DHT22;16707;48.106;11.548;2023-07-29T06:33:14;19.20;99.90
29813;DHT22;16707;48.106;11.548;2023-07-29T06:35:41;19.50;99.90
29813;DHT22;16707;48.106;11.548;2023-07-29T06:38:08;19.90;99.90
29813;DHT22;16707;48.106;11.548;2023-07-29T06:40:35;20.00;99.90
29813;DHT22;16707;48.106;11.548;2023-07-29T06:43:02;20.00;99.90
29813;DHT22;16707;48.106;11.548;2023-07-29T06:45:29;19.80;99.90
29813;DHT22;16707;48.106;11.548;2023-07-29T06:47:58;19.70;99.90
29813;DHT22;16707;48.106;11.548;2023-07-29T06:50:25;19.50;99.90
29813;DHT22;16707;48.106;11.548;2023-07-29T06:52:52;19.20;99.90
29813;DHT22;16707;48.106;11.548;2023-07-29T06:55:19;19.10;99.90
29813;DHT22;16707;48.106;11.548;2023-07-29T06:57:46;18.80;99.90
29813;DHT22;16707;48.106;11.548;2023-07-29T07:00:13;18.60;99.90
29813;DHT22;16707;48.106;11.548;2023-07-29T07:02:40;18.50;99.90
29813;DHT22;16707;48.106;11.548;2023-07-29T07:05:08;18.40;99.90
29813;DHT22;16707;48.106;11.548;2023-07-29T07:07:35;18.40;99.90
29813;DHT22;16707;48.106;11.548;2023-07-29T07:10:04;18.50;99.90
29813;DHT22;16707;48.106;11.548;2023-07-29T07:12:31;18.80;99.90
29813;DHT22;16707;48.106;11.548;2023-07-29T07:14:59;19.00;99.90
29813;DHT22;16707;48.106;11.548;2023-07-29T07:17:26;19.00;99.90
29813;DHT22;16707;48.106;11.548;2023-07-29T07:19:53;19.20;99.90
29813;DHT22;16707;48.106;11.548;2023-07-29T07:22:22;19.20;99.90
29813;DHT22;16707;48.106;11.548;2023-07-29T07:24:49;19.30;99.90
29813;DHT22;16707;48.106;11.548;2023-07-29T07:27:17;19.30;99.90
29813;DHT22;16707;48.106;11.548;2023-07-29T07:29:43;19.30;99.90
29813;DHT22;16707;48.106;11.548;2023-07-29T07:32:10;19.30;99.90
29813;DHT22;16707;48.106;11.548;2023-07-29T07:34:37;19.30;99.90
29813;DHT22;16707;48.106;11.548;2023-07-29T07:37:05;19.40;99.90
29813;DHT22;16707;48.106;11.548;2023-07-29T07:39:34;19.50;99.90
29813;DHT22;16707;48.106;11.548;2023-07-29T07:42:01;19.50;99.90
29813;DHT22;16707;48.106;11.548;2023-07-29T07:44:28;19.50;99.90
29813;DHT22;16707;48.106;11.548;2023-07-29T07:46:55;19.70;99.90
29813;DHT22;16707;48.106;11.548;2023-07-29T07:49:22;19.70;99.90
29813;DHT22;16707;48.106;11.548;2023-07-29T07:51:49;20.00;99.90
29813;DHT22;16707;48.106;11.548;2023-07-29T07:54:16;20.30;99.90
29813;DHT22;16707;48.106;11.548;2023-07-29T07:56:48;20.60;99.90
29813;DHT22;16707;48.106;11.548;2023-07-29T07:59:17;20.80;99.90
29813;DHT22;16707;48.106;11.548;2023-07-29T08:01:50;20.90;99.90
29813;DHT22;16707;48.106;11.548;2023-07-29T08:04:18;21.00;99.90
29813;DHT22;16707;48.106;11.548;2023-07-29T08:06:50;21.20;99.90
29813;DHT22;16707;48.106;11.548;2023-07-29T08:09:17;21.30;99.90
29813;DHT22;16707;48.106;11.548;2023-07-29T08:11:44;21.40;99.90
29813;DHT22;16707;48.106;11.548;2023-07-29T08:14:14;21.60;99.90
29813;DHT22;16707;48.106;11.548;2023-07-29T08:16:41;21.80;99.90
29813;DHT22;16707;48.106;11.548;2023-07-29T08:19:08;22.10;99.90
29813;DHT22;16707;48.106;11.548;2023-07-29T08:21:35;22.30;99.90
29813;DHT22;16707;48.106;11.548;2023-07-29T08:24:02;22.50;99.90
29813;DHT22;16707;48.106;11.548;2023-07-29T08:26:30;22.60;99.90
29813;DHT22;16707;48.106;11.548;2023-07-29T08:28:57;22.60;99.90
29813;DHT22;16707;48.106;11.548;2023-07-29T08:31:25;22.70;99.90
29813;DHT22;16707;48.106;11.548;2023-07-29T08:33:52;22.90;99.90
29813;DHT22;16707;48.106;11.548;2023-07-29T08:36:19;23.30;99.90
29813;DHT22;16707;48.106;11.548;2023-07-29T08:38:46;23.50;99.90
29813;DHT22;16707;48.106;11.548;2023-07-29T08:41:14;23.20;99.90
29813;DHT22;16707;48.106;11.548;2023-07-29T08:43:49;23.20;99.90
29813;DHT22;16707;48.106;11.548;2023-07-29T08:46:19;23.20;99.90
29813;DHT22;16707;48.106;11.548;2023-07-29T08:48:48;23.60;99.90
29813;DHT22;16707;48.106;11.548;2023-07-29T08:51:15;23.50;99.90
29813;DHT22;16707;48.106;11.548;2023-07-29T08:53:44;23.40;99.90
29813;DHT22;16707;48.106;11.548;2023-07-29T08:56:11;23.60;99.90
29813;DHT22;16707;48.106;11.548;2023-07-29T08:58:39;23.70;99.90
29813;DHT22;16707;48.106;11.548;2023-07-29T09:01:06;23.80;99.90
29813;DHT22;16707;48.106;11.548;2023-07-29T09:03:33;23.80;99.90
29813;DHT22;16707;48.106;11.548;2023-07-29T09:06:02;23.60;99.90
29813;DHT22;16707;48.106;11.548;2023-07-29T09:08:30;23.50;99.90
29813;DHT22;16707;48.106;11.548;2023-07-29T09:10:57;23.60;99.90
29813;DHT22;16707;48.106;11.548;2023-07-29T09:13:24;23.80;99.90
29813;DHT22;16707;48.106;11.548;2023-07-29T09:15:54;24.00;99.90
29813;DHT22;16707;48.106;11.548;2023-07-29T09:18:22;24.10;99.90
29813;DHT22;16707;48.106;11.548;2023-07-29T09:20:50;24.30;99.90
29813;DHT22;16707;48.106;11.548;2023-07-29T09:23:18;24.30;99.90
29813;DHT22;16707;48.106;11.548;2023-07-29T09:25:46;24.10;99.90
29813;DHT22;16707;48.106;11.548;2023-07-29T09:28:15;24.20;99.90
29813;DHT22;16707;48.106;11.548;2023-07-29T09:30:44;24.60;99.90
29813;DHT22;16707;48.106;11.548;2023-07-29T09:33:12;24.40;99.90
29813;DHT22;16707;48.106;11.548;2023-07-29T09:35:39;24.30;99.90
29813;DHT22;16707;48.106;11.548;2023-07-29T09:38:06;24.40;99.90
29813;DHT22;16707;48.106;11.548;2023-07-29T09:40:38;24.50;99.90
29813;DHT22;16707;48.106;11.548;2023-07-29T09:43:08;24.70;99.90
29813;DHT22;16707;48.106;11.548;2023-07-29T09:45:36;25.10;99.90
29813;DHT22;16707;48.106;11.548;2023-07-29T09:48:04;25.90;99.90
29813;DHT22;16707;48.106;11.548;2023-07-29T09:50:35;26.20;99.90
29813;DHT22;16707;48.106;11.548;2023-07-29T09:53:02;26.90;99.90
29813;DHT22;16707;48.106;11.548;2023-07-29T09:55:32;26.90;99.90
29813;DHT22;16707;48.106;11.548;2023-07-29T09:58:01;27.20;99.90
29813;DHT22;16707;48.106;11.548;2023-07-29T10:00:32;27.40;99.80
29813;DHT22;16707;48.106;11.548;2023-07-29T10:03:00;27.30;99.20
29813;DHT22;16707;48.106;11.548;2023-07-29T10:05:28;27.20;99.20
29813;DHT22;16707;48.106;11.548;2023-07-29T10:07:56;26.90;97.40
29813;DHT22;16707;48.106;11.548;2023-07-29T10:10:23;26.50;95.90
29813;DHT22;16707;48.106;11.548;2023-07-29T10:12:50;26.30;96.50
29813;DHT22;16707;48.106;11.548;2023-07-29T10:15:20;26.40;97.60
29813;DHT22;16707;48.106;11.548;2023-07-29T10:17:48;26.50;96.60
29813;DHT22;16707;48.106;11.548;2023-07-29T10:20:16;26.50;96.70
29813;DHT22;16707;48.106;11.548;2023-07-29T10:22:46;26.70;96.60
29813;DHT22;16707;48.106;11.548;2023-07-29T10:25:16;26.80;95.80
29813;DHT22;16707;48.106;11.548;2023-07-29T10:27:48;26.80;94.40
29813;DHT22;16707;48.106;11.548;2023-07-29T10:30:16;26.70;95.20
29813;DHT22;16707;48.106;11.548;2023-07-29T10:32:45;26.80;95.00
29813;DHT22;16707;48.106;11.548;2023-07-29T10:35:13;26.80;94.60
29813;DHT22;16707;48.106;11.548;2023-07-29T10:37:40;26.40;95.20
29813;DHT22;16707;48.106;11.548;2023-07-29T10:40:09;26.50;95.80
29813;DHT22;16707;48.106;11.548;2023-07-29T10:42:38;26.50;94.80
29813;DHT22;16707;48.106;11.548;2023-07-29T10:45:18;26.80;93.40
29813;DHT22;16707;48.106;11.548;2023-07-29T10:47:47;26.70;93.80
29813;DHT22;16707;48.106;11.548;2023-07-29T10:50:19;26.30;93.90
29813;DHT22;16707;48.106;11.548;2023-07-29T10:52:49;26.40;93.00
29813;DHT22;16707;48.106;11.548;2023-07-29T10:55:26;26.50;93.70
29813;DHT22;16707;48.106;11.548;2023-07-29T10:58:05;26.50;93.30
29813;DHT22;16707;48.106;11.548;2023-07-29T11:00:33;26.30;94.10
29813;DHT22;16707;48.106;11.548;2023-07-29T11:03:03;26.80;94.00
29813;DHT22;16707;48.106;11.548;2023-07-29T11:05:46;27.20;93.10
29813;DHT22;16707;48.106;11.548;2023-07-29T11:08:19;27.20;91.90
29813;DHT22;16707;48.106;11.548;2023-07-29T11:11:04;27.10;92.00
29813;DHT22;16707;48.106;11.548;2023-07-29T11:13:33;27.20;92.30
29813;DHT22;16707;48.106;11.548;2023-07-29T11:16:01;27.30;91.40
29813;DHT22;16707;48.106;11.548;2023-07-29T11:18:31;27.40;90.00
29813;DHT22;16707;48.106;11.548;2023-07-29T11:21:00;27.80;87.70
29813;DHT22;16707;48.106;11.548;2023-07-29T11:23:29;27.90;89.10
29813;DHT22;16707;48.106;11.548;2023-07-29T11:25:58;27.90;88.10
29813;DHT22;16707;48.106;11.548;2023-07-29T11:28:26;27.40;87.20
29813;DHT22;16707;48.106;11.548;2023-07-29T11:30:55;26.50;88.90
29813;DHT22;16707;48.106;11.548;2023-07-29T11:33:24;25.90;90.20
29813;DHT22;16707;48.106;11.548;2023-07-29T11:35:52;26.00;89.90
29813;DHT22;16707;48.106;11.548;2023-07-29T11:38:21;25.70;89.80
29813;DHT22;16707;48.106;11.548;2023-07-29T11:40:56;25.70;90.20
29813;DHT22;16707;48.106;11.548;2023-07-29T11:43:25;25.40;91.10
29813;DHT22;16707;48.106;11.548;2023-07-29T11:45:52;25.10;91.30
29813;DHT22;16707;48.106;11.548;2023-07-29T11:48:26;25.20;93.10
29813;DHT22;16707;48.106;11.548;2023-07-29T11:50:55;24.90;91.90
29813;DHT22;16707;48.106;11.548;2023-07-29T11:53:26;24.80;93.80
29813;DHT22;16707;48.106;11.548;2023-07-29T11:55:55;24.80;92.10
29813;DHT22;16707;48.106;11.548;2023-07-29T11:58:22;24.90;93.10
29813;DHT22;16707;48.106;11.548;2023-07-29T12:00:49;24.80;93.70
29813;DHT22;16707;48.106;11.548;2023-07-29T12:03:17;25.00;93.00
29813;DHT22;16707;48.106;11.548;2023-07-29T12:05:44;25.10;92.50
29813;DHT22;16707;48.106;11.548;2023-07-29T12:08:12;25.00;92.40
29813;DHT22;16707;48.106;11.548;2023-07-29T12:10:40;24.80;93.40
29813;DHT22;16707;48.106;11.548;2023-07-29T12:13:07;24.90;93.20
29813;DHT22;16707;48.106;11.548;2023-07-29T12:15:38;25.00;92.60
29813;DHT22;16707;48.106;11.548;2023-07-29T12:18:05;25.00;93.80
29813;DHT22;16707;48.106;11.548;2023-07-29T12:20:32;25.10;94.20
29813;DHT22;16707;48.106;11.548;2023-07-29T12:23:00;25.30;93.00
29813;DHT22;16707;48.106;11.548;2023-07-29T12:25:30;25.40;92.80
29813;DHT22;16707;48.106;11.548;2023-07-29T12:28:01;25.80;92.40
29813;DHT22;16707;48.106;11.548;2023-07-29T12:30:29;26.10;91.60
29813;DHT22;16707;48.106;11.548;2023-07-29T12:32:56;26.50;92.40
29813;DHT22;16707;48.106;11.548;2023-07-29T12:35:23;26.70;90.90
29813;DHT22;16707;48.106;11.548;2023-07-29T12:38:00;27.00;90.10
29813;DHT22;16707;48.106;11.548;2023-07-29T12:40:29;27.00;90.00
29813;DHT22;16707;48.106;11.548;2023-07-29T12:42:56;26.80;90.30
29813;DHT22;16707;48.106;11.548;2023-07-29T12:45:23;26.70;89.10
29813;DHT22;16707;48.106;11.548;2023-07-29T12:47:52;26.70;90.40
29813;DHT22;16707;48.106;11.548;2023-07-29T12:50:19;26.40;90.20
29813;DHT22;16707;48.106;11.548;2023-07-29T12:52:46;26.30;90.30
29813;DHT22;16707;48.106;11.548;2023-07-29T12:55:13;25.90;92.50
29813;DHT22;16707;48.106;11.548;2023-07-29T12:57:42;25.30;93.00
29813;DHT22;16707;48.106;11.548;2023-07-29T13:00:10;24.80;95.30
29813;DHT22;16707;48.106;11.548;2023-07-29T13:02:38;24.30;97.90
29813;DHT22;16707;48.106;11.548;2023-07-29T13:05:08;24.00;99.90
29813;DHT22;16707;48.106;11.548;2023-07-29T13:07:36;23.70;99.90
29813;DHT22;16707;48.106;11.548;2023-07-29T13:10:03;23.20;99.90
29813;DHT22;16707;48.106;11.548;2023-07-29T13:12:31;22.70;99.90
29813;DHT22;16707;48.106;11.548;2023-07-29T13:15:00;22.20;99.90
29813;DHT22;16707;48.106;11.548;2023-07-29T13:17:27;21.60;99.90
29813;DHT22;16707;48.106;11.548;2023-07-29T13:19:54;20.90;99.90
29813;DHT22;16707;48.106;11.548;2023-07-29T13:22:21;19.50;99.90
29813;DHT22;16707;48.106;11.548;2023-07-29T13:24:48;18.90;99.90
29813;DHT22;16707;48.106;11.548;2023-07-29T13:27:16;18.80;99.90
29813;DHT22;16707;48.106;11.548;2023-07-29T13:29:42;19.00;99.90
29813;DHT22;16707;48.106;11.548;2023-07-29T13:32:11;18.80;99.90
29813;DHT22;16707;48.106;11.548;2023-07-29T13:34:38;18.80;99.90
29813;DHT22;16707;48.106;11.548;2023-07-29T13:37:06;19.00;99.90
29813;DHT22;16707;48.106;11.548;2023-07-29T13:39:32;19.10;99.90
29813;DHT22;16707;48.106;11.548;2023-07-29T13:41:59;19.10;99.90
29813;DHT22;16707;48.106;11.548;2023-07-29T13:44:26;19.20;99.90
29813;DHT22;16707;48.106;11.548;2023-07-29T13:46:53;19.40;99.90
29813;DHT22;16707;48.106;11.548;2023-07-29T13:49:22;19.50;99.90
29813;DHT22;16707;48.106;11.548;2023-07-29T13:51:48;19.60;99.90
29813;DHT22;16707;48.106;11.548;2023-07-29T13:54:15;19.80;99.90
29813;DHT22;16707;48.106;11.548;2023-07-29T13:56:42;19.80;99.90
29813;DHT22;16707;48.106;11.548;2023-07-29T13:59:09;19.90;99.90
29813;DHT22;16707;48.106;11.548;2023-07-29T14:01:36;20.10;99.90
29813;DHT22;16707;48.106;11.548;2023-07-29T14:04:03;20.20;99.90
29813;DHT22;16707;48.106;11.548;2023-07-29T14:06:32;20.20;99.90
29813;DHT22;16707;48.106;11.548;2023-07-29T14:08:59;20.20;99.90
29813;DHT22;16707;48.106;11.548;2023-07-29T14:11:26;20.10;99.90
29813;DHT22;16707;48.106;11.548;2023-07-29T14:13:53;20.10;99.90
29813;DHT22;16707;48.106;11.548;2023-07-29T14:16:20;20.10;99.90
29813;DHT22;16707;48.106;11.548;2023-07-29T14:18:47;20.10;99.90
29813;DHT22;16707;48.106;11.548;2023-07-29T14:21:14;20.00;99.90
29813;DHT22;16707;48.106;11.548;2023-07-29T14:23:42;20.10;99.90
29813;DHT22;16707;48.106;11.548;2023-07-29T14:26:09;20.20;99.90
29813;DHT22;16707;48.106;11.548;2023-07-29T14:28:36;20.40;99.90
29813;DHT22;16707;48.106;11.548;2023-07-29T14:31:04;20.50;99.90
29813;DHT22;16707;48.106;11.548;2023-07-29T14:33:31;20.50;99.90
29813;DHT22;16707;48.106;11.548;2023-07-29T14:35:58;20.50;99.90
29813;DHT22;16707;48.106;11.548;2023-07-29T14:38:25;20.30;99.90
29813;DHT22;16707;48.106;11.548;2023-07-29T14:40:53;20.10;99.90
29813;DHT22;16707;48.106;11.548;2023-07-29T14:43:22;19.90;99.90
29813;DHT22;16707;48.106;11.548;2023-07-29T14:45:49;19.80;99.90
29813;DHT22;16707;48.106;11.548;2023-07-29T14:48:16;19.70;99.90
29813;DHT22;16707;48.106;11.548;2023-07-29T14:50:43;19.60;99.90
29813;DHT22;16707;48.106;11.548;2023-07-29T14:53:11;19.50;99.90
29813;DHT22;16707;48.106;11.548;2023-07-29T14:55:37;19.50;99.90
29813;DHT22;16707;48.106;11.548;2023-07-29T14:58:06;19.50;99.90
29813;DHT22;16707;48.106;11.548;2023-07-29T15:00:33;19.50;99.90
29813;DHT22;16707;48.106;11.548;2023-07-29T15:03:00;19.50;99.90
29813;DHT22;16707;48.106;11.548;2023-07-29T15:05:27;19.60;99.90
29813;DHT22;16707;48.106;11.548;2023-07-29T15:07:54;19.60;99.90
29813;DHT22;16707;48.106;11.548;2023-07-29T15:10:21;19.60;99.90
29813;DHT22;16707;48.106;11.548;2023-07-29T15:12:48;19.50;99.90
29813;DHT22;16707;48.106;11.548;2023-07-29T15:15:16;19.50;99.90
29813;DHT22;16707;48.106;11.548;2023-07-29T15:17:43;19.60;99.90
29813;DHT22;16707;48.106;11.548;2023-07-29T15:20:11;19.80;99.90